»·PEaware :: N253AW KFUL-KPSP

N253AW :: KFUL-KPSP

FLIGHT INFORMATION

Flight Status: Arrived
Operator: Privately registered:
United States
More flights under this callsign
Pilot: Dean S. (16265)
Aircraft: CESSNA 182 SKYLANE
(C182)
More flights by this aircraft type
Origin: KFUL Fullerton Mun
United States
Destination: KPSP Palm Springs Intl
United States
More flights between these airports :: More routes between these airports
Route: EBITE PDZ V388 DEWAY
File this flight plan on PilotEdge
Remarks: PDZ
Altitude:
(Current/Filed)
3,500ft
Speed:
(Current/Filed)
140kts
Departed: 07-Oct-17 06:54 PM
Arrived: 07-Oct-17 07:35 PM
Distance/Time
Traveled:
73nm/0:41
Distance/Time
To Go:
Arrived

Flight Plot

Page will automatically refresh every two minutes.

Flight plan parsing failed; only flown route is shown


Map Options




Map Legend


Flown Route
Filed Route
Departure Airport
Arrival Airport
Navaid (VOR, NDB)
Fix

Horizontal Profiles

Position Reports

Time Latitude Longitude Heading Altitude Ground
Speed
07-Oct-17 18:49 33.873669 -117.979322 346 99ft 0kts
07-Oct-17 18:50 33.873715 -117.979203 98 99ft 0kts
07-Oct-17 18:51 33.873715 -117.979203 98 99ft 0kts
07-Oct-17 18:52 33.873715 -117.979203 98 99ft 0kts
07-Oct-17 18:53 33.872858 -117.981228 261 99ft 5kts
07-Oct-17 18:54 33.872511 -117.981024 80 99ft 16kts
07-Oct-17 18:55 33.873376 -117.975729 93 99ft 9kts
07-Oct-17 18:56 33.873278 -117.975187 129 99ft 0kts
07-Oct-17 18:57 33.873278 -117.975186 129 99ft 0kts
07-Oct-17 18:58 33.871264 -117.983379 255 211ft 74kts
07-Oct-17 18:59 33.879582 -118.002341 17 973ft 109kts
07-Oct-17 19:00 33.885174 -117.964335 89 1600ft 127kts
07-Oct-17 19:01 33.880156 -117.924051 113 2510ft 122kts
07-Oct-17 19:02 33.867951 -117.886168 106 3372ft 125kts
07-Oct-17 19:03 33.866270 -117.843389 82 4154ft 130kts
07-Oct-17 19:04 33.870292 -117.799883 79 4967ft 134kts
07-Oct-17 19:05 33.863390 -117.752834 103 5256ft 155kts
07-Oct-17 19:06 33.869096 -117.702832 63 5266ft 159kts
07-Oct-17 19:07 33.889364 -117.656863 61 5566ft 146kts
07-Oct-17 19:08 33.908257 -117.614600 61 6256ft 142kts
07-Oct-17 19:09 33.927028 -117.572600 61 6955ft 142kts
07-Oct-17 19:10 33.946389 -117.529272 61 7269ft 156kts
07-Oct-17 19:11 33.956520 -117.479500 97 7275ft 160kts
07-Oct-17 19:12 33.948895 -117.426613 108 7272ft 160kts
07-Oct-17 19:13 33.937126 -117.374717 104 7274ft 160kts
07-Oct-17 19:14 33.925839 -117.322580 101 7284ft 160kts
07-Oct-17 19:15 33.920154 -117.269301 96 7293ft 160kts
07-Oct-17 19:16 33.914900 -117.215724 96 7298ft 160kts
07-Oct-17 19:17 33.912914 -117.162318 84 7311ft 160kts
07-Oct-17 19:18 33.915860 -117.108904 93 7321ft 160kts
07-Oct-17 19:20 33.916199 -117.055063 84 7327ft 159kts
07-Oct-17 19:20 33.917691 -117.014382 92 7208ft 143kts
07-Oct-17 19:21 33.913611 -116.968222 99 7267ft 122kts
07-Oct-17 19:23 33.919244 -116.922026 72 7544ft 124kts
07-Oct-17 19:24 33.926747 -116.880679 85 7228ft 130kts
07-Oct-17 19:24 33.926212 -116.844762 93 6544ft 130kts
07-Oct-17 19:26 33.931527 -116.796239 78 5756ft 107kts
07-Oct-17 19:26 33.935944 -116.768747 80 5526ft 104kts
07-Oct-17 19:27 33.938096 -116.733705 91 5087ft 104kts
07-Oct-17 19:28 33.933962 -116.699180 108 4572ft 104kts
07-Oct-17 19:29 33.923477 -116.670009 116 3927ft 92kts
07-Oct-17 19:30 33.912297 -116.642512 120 3240ft 85kts
07-Oct-17 19:31 33.897994 -116.617773 125 2714ft 92kts
07-Oct-17 19:32 33.882801 -116.593511 127 2093ft 85kts
07-Oct-17 19:33 33.868170 -116.573321 130 1801ft 79kts
07-Oct-17 19:34 33.855261 -116.552727 124 1560ft 76kts
07-Oct-17 19:35 33.840801 -116.534171 143 1344ft 74kts
07-Oct-17 19:36 33.824123 -116.520603 138 1173ft 72kts
07-Oct-17 19:37 33.809105 -116.503589 126 1000ft 74kts
07-Oct-17 19:38 33.817192 -116.495956 318 716ft 82kts
07-Oct-17 19:39 33.828368 -116.506697 256 480ft 6kts
07-Oct-17 19:40 33.826867 -116.506886 149 480ft 9kts
07-Oct-17 19:41 33.824067 -116.506659 152 480ft 10kts
07-Oct-17 19:42 33.823333 -116.507121 180 480ft 0kts

Navigation Log

Ident Type
Flight plan parsing failed, navigation log unavailable